Time;durP1;ratioP1;P1;durP2;ratioP2;P2;SDS_P1;SDS_P2;PMS_P1;PMS_P2;Temp;Humidity;BMP_temperature;BMP_pressure;BME280_temperature;BME280_humidity;BME280_pressure;Samples;Min_cycle;Max_cycle;Signal;HPM_P1;HPM_P2
2022/10/12 00:01:05;;;;;;;4.05;2.15;;;;;;;8.36;100.00;101903.41;4927268;29;20067;-80
2022/10/12 00:03:33;;;;;;;6.80;2.08;;;;;;;8.33;100.00;101903.38;4932911;28;20049;-79
2022/10/12 00:06:08;;;;;;;5.17;2.03;;;;;;;8.33;100.00;101908.63;4913573;29;20043;-81
2022/10/12 00:08:35;;;;;;;4.17;2.30;;;;;;;8.39;100.00;101908.69;4934359;28;20588;-79
2022/10/12 00:11:03;;;;;;;6.83;2.07;;;;;;;8.33;100.00;101908.63;4927405;29;20270;-79
2022/10/12 00:13:30;;;;;;;6.40;2.20;;;;;;;8.31;100.00;101907.72;4920524;29;20039;-81
2022/10/12 00:16:01;;;;;;;4.53;2.20;;;;;;;8.33;100.00;101918.28;4941081;29;20039;-79
2022/10/12 00:18:27;;;;;;;5.60;2.20;;;;;;;8.29;100.00;101909.47;4920128;28;20507;-79
2022/10/12 00:21:04;;;;;;;3.60;2.00;;;;;;;8.29;100.00;101912.09;4924175;29;20047;-81
2022/10/12 00:23:31;;;;;;;4.57;2.30;;;;;;;8.38;100.00;101913.97;4923710;28;20047;-79
2022/10/12 00:26:10;;;;;;;7.45;2.75;;;;;;;8.34;100.00;101913.03;4924600;28;20059;-79
2022/10/12 00:28:37;;;;;;;5.68;2.50;;;;;;;8.30;100.00;101915.59;4942925;29;20050;-80
2022/10/12 00:31:13;;;;;;;6.20;2.15;;;;;;;8.27;100.00;101913.84;4929236;28;20451;-80
2022/10/12 00:33:39;;;;;;;9.93;2.77;;;;;;;8.26;100.00;101913.81;4928894;28;20058;-78
2022/10/12 00:36:27;;;;;;;3.73;2.23;;;;;;;8.29;100.00;101911.22;4920275;28;20031;-79
2022/10/12 00:38:54;;;;;;;6.80;2.03;;;;;;;8.27;100.00;101913.84;4925727;28;20101;-79
2022/10/12 00:41:26;;;;;;;6.63;2.70;;;;;;;8.26;100.00;101919.09;4939068;28;20093;-79
2022/10/12 00:43:54;;;;;;;6.67;2.60;;;;;;;8.28;100.00;101920.88;4924114;29;20051;-79
2022/10/12 00:46:32;;;;;;;5.17;2.07;;;;;;;8.26;100.00;101919.97;4907619;28;20039;-80
2022/10/12 00:49:19;;;;;;;8.17;3.23;;;;;;;8.26;100.00;101922.59;4933577;28;20039;-81
2022/10/12 00:51:56;;;;;;;6.78;2.20;;;;;;;8.26;100.00;101919.09;4926603;29;20523;-79
2022/10/12 00:54:26;;;;;;;8.00;2.63;;;;;;;8.25;100.00;101915.59;4924332;29;20054;-80
2022/10/12 00:56:54;;;;;;;7.10;2.70;;;;;;;8.30;100.00;101923.50;4921620;29;20058;-81
2022/10/12 00:59:27;;;;;;;5.77;2.27;;;;;;;8.32;100.00;101925.28;4923669;29;20485;-80
2022/10/12 01:01:55;;;;;;;6.60;2.17;;;;;;;8.26;100.00;101925.25;4931630;29;20058;-79
2022/10/12 01:04:22;;;;;;;5.83;2.30;;;;;;;8.24;100.00;101921.72;4956040;28;20058;-81
2022/10/12 01:06:49;;;;;;;5.82;2.53;;;;;;;8.27;100.00;101919.09;4915661;29;20047;-79
2022/10/12 01:09:16;;;;;;;7.60;2.70;;;;;;;8.25;100.00;101926.13;4926166;28;20039;-81
2022/10/12 01:11:42;;;;;;;8.23;2.38;;;;;;;8.26;100.00;101921.72;4906552;29;20094;-79
2022/10/12 01:14:09;;;;;;;5.37;2.40;;;;;;;8.25;100.00;101919.97;4950388;28;20047;-79
2022/10/12 01:16:46;;;;;;;5.15;2.15;;;;;;;8.25;100.00;101919.97;4922388;29;20405;-80
2022/10/12 01:19:43;;;;;;;4.53;2.05;;;;;;;8.26;100.00;101925.25;4910578;29;20736;-79
2022/10/12 01:22:14;;;;;;;10.73;3.03;;;;;;;8.25;100.00;101919.97;4934075;29;20106;-81
2022/10/12 01:25:03;;;;;;;5.97;2.40;;;;;;;8.23;100.00;101919.91;4907575;29;20453;-79
2022/10/12 01:27:33;;;;;;;11.15;3.72;;;;;;;8.36;100.00;101928.88;4921071;29;20040;-79
2022/10/12 01:30:12;;;;;;;4.93;2.60;;;;;;;8.27;100.00;101924.38;4952077;28;20564;-81
2022/10/12 01:33:13;;;;;;;7.87;3.13;;;;;;;8.28;100.00;101923.50;4926566;28;20042;-78
2022/10/12 01:36:04;;;;;;;5.30;2.30;;;;;;;8.23;100.00;101917.28;4881105;29;20070;-79
2022/10/12 01:38:44;;;;;;;6.13;2.40;;;;;;;8.31;100.00;101912.09;4919783;29;20098;-82
2022/10/12 01:41:34;;;;;;;6.37;2.43;;;;;;;8.23;100.00;101916.41;4929034;29;20051;-82
2022/10/12 01:44:01;;;;;;;6.53;2.40;;;;;;;8.20;100.00;101914.63;4907056;29;20097;-82
2022/10/12 01:46:28;;;;;;;6.90;2.40;;;;;;;8.17;100.00;101915.50;4920129;29;20036;-82
2022/10/12 01:48:57;;;;;;;6.77;2.47;;;;;;;8.21;100.00;101915.53;4936274;29;20039;-82
2022/10/12 01:51:28;;;;;;;8.03;2.57;;;;;;;8.21;100.00;101913.78;4917941;29;20515;-82
2022/10/12 01:54:20;;;;;;;6.30;2.40;;;;;;;8.25;100.00;101919.97;4904045;29;20047;-81
2022/10/12 01:56:57;;;;;;;6.47;2.43;;;;;;;8.23;100.00;101912.03;4913471;29;20374;-80
2022/10/12 01:59:33;;;;;;;5.03;2.30;;;;;;;8.25;100.00;101912.94;4936707;28;20043;-81
2022/10/12 02:02:04;;;;;;;5.60;2.50;;;;;;;8.20;100.00;101909.38;4944903;29;20046;-80
2022/10/12 02:04:36;;;;;;;4.97;2.00;;;;;;;8.22;100.00;101910.25;4934207;28;20043;-81
2022/10/12 02:07:09;;;;;;;7.47;2.97;;;;;;;8.22;100.00;101912.03;4918592;29;20137;-80
2022/10/12 02:09:36;;;;;;;3.70;2.10;;;;;;;8.21;100.00;101911.13;4935223;28;20089;-81
2022/10/12 02:12:14;;;;;;;7.90;3.50;;;;;;;8.24;100.00;101905.91;4925463;28;20054;-81
2022/10/12 02:14:45;;;;;;;5.35;2.60;;;;;;;8.26;100.00;101906.81;4933667;29;20039;-80
2022/10/12 02:17:14;;;;;;;5.90;3.10;;;;;;;8.24;100.00;101905.91;4921768;29;20048;-81
2022/10/12 02:19:44;;;;;;;5.90;2.63;;;;;;;8.23;100.00;101906.75;4947421;28;20101;-81
2022/10/12 02:22:11;;;;;;;7.23;2.70;;;;;;;8.32;100.00;101904.22;4905323;29;20520;-81
2022/10/12 02:24:39;;;;;;;5.43;2.13;;;;;;;8.26;100.00;101906.81;4903074;29;20050;-80
2022/10/12 02:27:08;;;;;;;4.90;2.63;;;;;;;8.24;100.00;101899.75;4902080;29;20043;-81
2022/10/12 02:29:39;;;;;;;7.27;2.63;;;;;;;8.23;100.00;101901.50;4922267;28;20587;-80
2022/10/12 02:32:38;;;;;;;10.10;2.70;;;;;;;8.26;100.00;101903.28;4902388;29;20456;-81
2022/10/12 02:35:26;;;;;;;4.90;2.50;;;;;;;8.25;100.00;101902.41;4917166;29;20040;-81
2022/10/12 02:38:06;;;;;;;5.40;2.40;;;;;;;8.25;100.00;101897.16;4918911;29;20051;-81
2022/10/12 02:40:40;;;;;;;7.77;2.70;;;;;;;8.23;100.00;101900.63;4914452;28;20149;-81
2022/10/12 02:43:12;;;;;;;10.82;3.15;;;;;;;8.23;100.00;101905.88;4919136;28;20097;-81
2022/10/12 02:45:42;;;;;;;8.13;2.90;;;;;;;8.23;100.00;101903.25;4908691;29;20051;-81
2022/10/12 02:48:10;;;;;;;5.67;2.70;;;;;;;8.22;100.00;101898.84;4934150;29;20098;-81
2022/10/12 02:50:37;;;;;;;7.60;3.37;;;;;;;8.20;100.00;101906.75;4920263;28;20046;-81
2022/10/12 02:53:04;;;;;;;7.57;2.73;;;;;;;8.24;100.00;101908.56;4909972;29;20098;-80
2022/10/12 02:55:30;;;;;;;6.80;3.17;;;;;;;8.27;100.00;101900.66;4944833;28;20055;-81
2022/10/12 02:57:57;;;;;;;6.50;2.73;;;;;;;8.31;100.00;101910.34;4922797;29;20044;-81
2022/10/12 03:00:24;;;;;;;4.80;2.90;;;;;;;8.22;100.00;101904.13;4940691;28;20051;-81
2022/10/12 03:02:50;;;;;;;7.13;2.93;;;;;;;8.24;100.00;101897.09;4922270;28;20055;-81
2022/10/12 03:05:17;;;;;;;9.00;3.30;;;;;;;8.23;100.00;101895.34;4942815;29;20043;-80
2022/10/12 03:07:44;;;;;;;12.70;4.33;;;;;;;8.23;100.00;101908.50;4917512;29;20086;-81
2022/10/12 03:10:10;;;;;;;8.47;3.50;;;;;;;8.15;100.00;101898.78;4922087;29;20058;-80
2022/10/12 03:12:37;;;;;;;10.37;3.53;;;;;;;8.36;100.00;101902.53;4920555;28;20049;-80
2022/10/12 03:15:04;;;;;;;4.20;2.77;;;;;;;8.22;100.00;101902.38;4934894;28;20049;-81
2022/10/12 03:17:30;;;;;;;7.67;2.43;;;;;;;8.16;100.00;101899.72;4937180;28;20464;-80
2022/10/12 03:19:57;;;;;;;6.27;3.20;;;;;;;8.17;100.00;101890.94;4931440;29;20054;-80
2022/10/12 03:22:24;;;;;;;7.63;2.97;;;;;;;8.17;100.00;101899.72;4945321;28;20047;-81
2022/10/12 03:24:50;;;;;;;4.83;2.57;;;;;;;8.13;100.00;101897.91;4923498;28;20109;-80
2022/10/12 03:27:17;;;;;;;11.67;3.30;;;;;;;8.18;100.00;101897.97;4918429;28;20501;-81
2022/10/12 03:29:44;;;;;;;6.57;2.57;;;;;;;8.14;100.00;101899.66;4918710;29;20416;-80
2022/10/12 03:32:10;;;;;;;4.73;2.63;;;;;;;8.12;100.00;101893.50;4926976;28;20039;-81
2022/10/12 03:34:37;;;;;;;6.57;3.23;;;;;;;8.15;100.00;101900.53;4908924;29;20043;-81
2022/10/12 03:37:04;;;;;;;7.83;3.03;;;;;;;8.15;100.00;101898.78;4932438;28;20043;-81
2022/10/12 03:39:30;;;;;;;6.23;3.10;;;;;;;8.16;100.00;101891.81;4923165;29;20046;-80
2022/10/12 03:41:57;;;;;;;6.50;2.73;;;;;;;8.19;100.00;101892.69;4930216;29;20051;-81
2022/10/12 03:44:24;;;;;;;9.63;2.87;;;;;;;8.23;100.00;101898.88;4936225;29;20101;-80
2022/10/12 03:46:50;;;;;;;4.87;2.93;;;;;;;8.26;100.00;101890.13;4913669;28;20035;-81
2022/10/12 03:49:17;;;;;;;8.07;3.07;;;;;;;8.17;100.00;101901.47;4924356;28;20407;-80
2022/10/12 03:51:43;;;;;;;7.07;3.40;;;;;;;8.15;100.00;101893.53;4956568;28;20046;-82
2022/10/12 03:54:10;;;;;;;6.43;2.73;;;;;;;8.13;100.00;101891.75;4927231;29;20044;-81
2022/10/12 03:56:37;;;;;;;7.20;2.90;;;;;;;8.14;100.00;101891.75;4938858;28;20026;-81
2022/10/12 03:59:04;;;;;;;7.37;3.13;;;;;;;8.14;100.00;101898.78;4952980;28;20046;-81
2022/10/12 04:01:31;;;;;;;6.00;3.23;;;;;;;8.12;100.00;101904.03;4942029;28;20055;-80
2022/10/12 04:03:57;;;;;;;6.60;2.87;;;;;;;8.13;100.00;101897.91;4934439;28;20047;-80
2022/10/12 04:06:24;;;;;;;5.10;3.07;;;;;;;8.12;100.00;101904.03;4922075;29;20444;-81
2022/10/12 04:08:51;;;;;;;11.83;3.50;;;;;;;8.15;100.00;101905.81;4922989;29;20043;-81
2022/10/12 04:11:19;;;;;;;6.63;3.43;;;;;;;8.18;100.00;101911.13;4921160;28;20079;-81
2022/10/12 04:13:46;;;;;;;12.90;4.00;;;;;;;8.15;100.00;101911.06;4922538;29;20066;-81
2022/10/12 04:16:13;;;;;;;6.83;3.10;;;;;;;8.13;100.00;101903.16;4905148;28;20046;-80
2022/10/12 04:18:39;;;;;;;8.57;3.43;;;;;;;8.11;100.00;101904.03;4938034;29;20571;-80
2022/10/12 04:21:10;;;;;;;10.87;4.57;;;;;;;8.13;100.00;101908.44;4906760;29;20461;-81
2022/10/12 04:23:37;;;;;;;7.20;3.33;;;;;;;8.09;100.00;101904.03;4922551;29;20049;-81
2022/10/12 04:26:03;;;;;;;9.90;3.57;;;;;;;8.09;100.00;101903.13;4925000;28;20055;-80
2022/10/12 04:28:30;;;;;;;6.20;3.10;;;;;;;8.07;100.00;101907.47;4920202;29;20094;-80
2022/10/12 04:30:57;;;;;;;7.03;3.17;;;;;;;8.07;100.00;101912.75;4952391;28;20051;-79
2022/10/12 04:33:23;;;;;;;7.37;3.60;;;;;;;8.14;100.00;101906.69;4943474;28;20039;-80
2022/10/12 04:35:50;;;;;;;9.40;3.73;;;;;;;8.14;100.00;101910.19;4925897;29;20102;-81
2022/10/12 04:38:17;;;;;;;9.23;4.00;;;;;;;8.10;100.00;101904.91;4921807;29;20087;-80
2022/10/12 04:40:46;;;;;;;8.13;3.20;;;;;;;8.14;100.00;101918.09;4938697;29;20142;-80
2022/10/12 04:43:14;;;;;;;6.13;3.87;;;;;;;8.10;100.00;101907.53;4918123;29;20052;-79
2022/10/12 04:45:40;;;;;;;6.33;3.60;;;;;;;8.09;100.00;101914.56;4927092;28;20031;-80
2022/10/12 04:48:07;;;;;;;7.43;3.00;;;;;;;8.09;100.00;101917.19;4931024;28;20516;-80
2022/10/12 04:50:34;;;;;;;7.00;3.43;;;;;;;8.09;100.00;101905.78;4936952;29;20038;-80
2022/10/12 04:53:00;;;;;;;5.83;3.30;;;;;;;8.08;100.00;101906.66;4923697;29;20044;-79
2022/10/12 04:55:27;;;;;;;8.57;3.97;;;;;;;8.07;100.00;101899.59;4939733;29;20074;-80
2022/10/12 04:57:54;;;;;;;9.43;3.20;;;;;;;8.06;100.00;101903.97;4925229;29;20032;-79
2022/10/12 05:00:21;;;;;;;5.70;3.00;;;;;;;8.06;100.00;101910.97;4928561;29;20035;-79
2022/10/12 05:02:47;;;;;;;7.93;3.73;;;;;;;8.04;100.00;101904.84;4924027;29;20062;-78
2022/10/12 05:05:14;;;;;;;7.50;3.93;;;;;;;8.06;100.00;101905.72;4923909;29;20552;-79
2022/10/12 05:07:40;;;;;;;7.60;3.20;;;;;;;8.09;100.00;101911.03;4924977;29;20499;-79
2022/10/12 05:10:08;;;;;;;7.77;3.70;;;;;;;8.06;100.00;101910.97;4921997;29;20515;-79
2022/10/12 05:12:34;;;;;;;6.97;3.17;;;;;;;8.04;100.00;101910.09;4908239;29;20051;-79
2022/10/12 05:15:02;;;;;;;7.03;3.23;;;;;;;8.06;100.00;101918.88;4908443;29;20047;-78
2022/10/12 05:17:28;;;;;;;7.17;3.57;;;;;;;8.06;100.00;101909.22;4925021;29;20522;-79
2022/10/12 05:19:55;;;;;;;6.63;3.83;;;;;;;8.04;100.00;101916.25;4905610;29;20054;-79
2022/10/12 05:22:21;;;;;;;7.00;3.50;;;;;;;8.04;100.00;101920.63;4938291;29;20043;-79
2022/10/12 05:24:48;;;;;;;7.77;3.20;;;;;;;8.01;100.00;101916.22;4924407;29;20420;-79
2022/10/12 05:27:19;;;;;;;5.73;3.57;;;;;;;8.04;100.00;101920.63;4938716;29;20035;-79
2022/10/12 05:29:46;;;;;;;7.90;3.67;;;;;;;8.02;100.00;101923.25;4928026;28;20069;-79
2022/10/12 05:32:13;;;;;;;10.37;4.67;;;;;;;8.01;100.00;101921.50;4938679;29;20058;-79
2022/10/12 05:34:41;;;;;;;8.70;3.90;;;;;;;8.02;100.00;101917.97;4928329;29;20118;-79
2022/10/12 05:37:08;;;;;;;7.60;4.30;;;;;;;8.01;100.00;101920.59;4912995;29;20043;-80
2022/10/12 05:39:36;;;;;;;9.67;4.37;;;;;;;8.00;100.00;101914.47;4923062;29;20067;-79
2022/10/12 05:42:03;;;;;;;9.47;5.67;;;;;;;8.04;100.00;101918.00;4934075;28;20053;-79
2022/10/12 05:44:29;;;;;;;9.40;5.57;;;;;;;8.06;100.00;101919.75;4923939;29;20492;-79
2022/10/12 05:46:56;;;;;;;11.20;4.77;;;;;;;8.03;100.00;101921.50;4920441;29;20039;-79
2022/10/12 05:49:23;;;;;;;8.90;4.47;;;;;;;8.02;100.00;101914.47;4937147;29;20061;-78
2022/10/12 05:51:49;;;;;;;6.83;4.23;;;;;;;8.05;100.00;101912.75;4898950;29;20051;-79
2022/10/12 05:54:16;;;;;;;8.50;4.30;;;;;;;8.07;100.00;101921.56;4924722;29;20075;-79
2022/10/12 05:56:43;;;;;;;9.47;3.87;;;;;;;8.03;100.00;101921.50;4937126;29;20043;-79
2022/10/12 05:59:10;;;;;;;8.30;3.63;;;;;;;8.04;100.00;101916.25;4896260;29;20696;-79
2022/10/12 06:01:36;;;;;;;10.00;3.80;;;;;;;8.10;100.00;101918.06;4933450;28;20050;-79
2022/10/12 06:04:03;;;;;;;5.83;3.43;;;;;;;8.07;100.00;101924.19;4920687;29;20091;-78
2022/10/12 06:06:30;;;;;;;6.93;3.50;;;;;;;8.08;100.00;101920.69;4922646;29;20051;-78
2022/10/12 06:08:57;;;;;;;8.30;3.73;;;;;;;8.16;100.00;101926.03;4913950;29;20039;-79
2022/10/12 06:11:23;;;;;;;8.63;3.90;;;;;;;8.19;100.00;101926.94;4926385;28;20040;-79
2022/10/12 06:13:50;;;;;;;7.38;4.15;;;;;;;8.16;100.00;101929.53;4947587;28;20101;-78
2022/10/12 06:16:16;;;;;;;6.90;3.30;;;;;;;8.13;100.00;101925.97;4940049;29;20051;-79
2022/10/12 06:18:43;;;;;;;6.60;3.30;;;;;;;8.15;100.00;101937.41;4941761;29;20031;-79
2022/10/12 06:21:10;;;;;;;6.23;3.60;;;;;;;8.16;100.00;101940.06;4921995;29;20524;-79
2022/10/12 06:23:56;;;;;;;6.77;3.30;;;;;;;8.20;100.00;101935.69;4929212;29;20046;-79
2022/10/12 06:26:23;;;;;;;9.10;3.30;;;;;;;8.24;100.00;101941.88;4922964;28;20508;-81
2022/10/12 06:28:50;;;;;;;7.03;3.00;;;;;;;8.26;100.00;101938.41;4931795;28;20343;-81
2022/10/12 06:31:17;;;;;;;7.57;3.90;;;;;;;8.32;100.00;101943.69;4926760;29;20142;-81
2022/10/12 06:33:43;;;;;;;7.37;3.37;;;;;;;8.33;100.00;101944.63;4945759;28;20046;-81
2022/10/12 06:36:10;;;;;;;7.97;3.80;;;;;;;8.36;100.00;101948.19;4909269;28;20052;-81
2022/10/12 06:38:37;;;;;;;5.73;3.87;;;;;;;8.38;100.00;101951.69;4917870;29;20043;-81
2022/10/12 06:41:03;;;;;;;7.07;4.10;;;;;;;8.42;100.00;101945.63;4916973;29;20051;-81
2022/10/12 06:43:30;;;;;;;8.47;3.90;;;;;;;8.44;100.00;101949.13;4895357;29;20051;-81
2022/10/12 06:46:00;;;;;;;7.27;3.43;;;;;;;8.51;100.00;101943.94;4897025;28;20136;-81
2022/10/12 06:48:27;;;;;;;8.23;4.10;;;;;;;8.53;100.00;101945.69;4956713;28;20046;-80
2022/10/12 06:50:54;;;;;;;9.82;3.60;;;;;;;8.65;100.00;101942.25;4912573;28;20415;-81
2022/10/12 06:53:21;;;;;;;8.67;3.63;;;;;;;8.58;100.00;101956.28;4910413;29;20055;-81
2022/10/12 06:55:48;;;;;;;7.40;3.67;;;;;;;8.62;100.00;101948.41;4911346;29;20409;-81
2022/10/12 06:58:14;;;;;;;8.80;4.10;;;;;;;8.62;100.00;101948.41;4914549;29;20043;-80
2022/10/12 07:00:41;;;;;;;13.93;4.83;;;;;;;8.69;100.00;101944.06;4901299;29;20075;-82
2022/10/12 07:03:11;;;;;;;10.13;4.00;;;;;;;8.70;100.00;101951.09;4901081;29;20040;-82
2022/10/12 07:05:38;;;;;;;8.23;4.00;;;;;;;8.69;100.00;101951.97;4917636;29;20044;-81
2022/10/12 07:08:04;;;;;;;8.38;3.70;;;;;;;8.73;100.00;101945.84;4919154;29;20047;-81
2022/10/12 07:10:31;;;;;;;12.53;4.40;;;;;;;8.81;100.00;101951.19;4921164;28;20051;-81
2022/10/12 07:12:58;;;;;;;7.78;3.90;;;;;;;8.79;100.00;101951.16;4959407;28;20058;-81
2022/10/12 07:15:24;;;;;;;9.15;3.63;;;;;;;8.83;100.00;101952.97;4889660;29;20101;-81
2022/10/12 07:17:51;;;;;;;10.57;3.95;;;;;;;8.83;100.00;101952.97;4927568;28;20039;-82
2022/10/12 07:20:18;;;;;;;7.07;3.35;;;;;;;8.87;100.00;101954.75;4942784;28;20038;-81
2022/10/12 07:22:44;;;;;;;8.85;4.30;;;;;;;8.94;100.00;101955.69;4936507;28;20042;-81
2022/10/12 07:25:11;;;;;;;9.60;3.90;;;;;;;8.93;100.00;101946.00;4923421;28;20121;-81
2022/10/12 07:27:37;;;;;;;12.33;4.07;;;;;;;8.97;100.00;101946.03;4925897;28;20039;-82
2022/10/12 07:30:05;;;;;;;11.57;4.53;;;;;;;9.02;100.00;101946.94;4941114;29;20058;-82
2022/10/12 07:32:32;;;;;;;9.93;4.05;;;;;;;9.14;100.00;101948.75;4911181;28;20054;-80
2022/10/12 07:34:59;;;;;;;9.13;3.17;;;;;;;9.20;100.00;101954.09;4951785;28;20047;-81
2022/10/12 07:37:25;;;;;;;8.07;3.53;;;;;;;9.20;100.00;101947.94;4921879;28;20038;-81
2022/10/12 07:39:56;;;;;;;10.00;3.90;;;;;;;9.22;100.00;101951.44;4935044;28;20393;-81
2022/10/12 07:42:24;;;;;;;7.20;3.72;;;;;;;9.24;100.00;101954.97;4925079;28;20043;-81
2022/10/12 07:44:50;;;;;;;10.18;4.25;;;;;;;9.27;100.00;101952.38;4923143;28;20113;-83
2022/10/12 07:47:18;;;;;;;10.25;3.85;;;;;;;9.35;100.00;101955.06;4930038;28;20460;-80
2022/10/12 07:49:45;;;;;;;8.75;3.30;;;;;;;9.50;100.00;101955.09;4923178;28;20769;-80
2022/10/12 07:52:11;;;;;;;9.82;3.72;;;;;;;9.65;100.00;101954.28;4946764;28;20060;-80
2022/10/12 07:54:38;;;;;;;9.35;3.17;;;;;;;9.57;100.00;101957.78;4939859;28;20066;-80
2022/10/12 07:57:05;;;;;;;10.63;3.67;;;;;;;9.55;100.00;101954.25;4919703;29;20056;-81
2022/10/12 07:59:31;;;;;;;11.52;3.90;;;;;;;9.66;100.00;101956.94;4923981;28;20057;-81
2022/10/12 08:01:58;;;;;;;6.40;3.45;;;;;;;9.70;100.00;101958.72;4934078;29;20134;-81
2022/10/12 08:04:25;;;;;;;8.95;3.83;;;;;;;9.78;100.00;101962.28;4996407;23;20035;-78
2022/10/12 08:06:51;;;;;;;9.25;4.35;;;;;;;9.85;100.00;101961.41;4940524;28;20061;-77
2022/10/12 08:09:18;;;;;;;6.68;3.47;;;;;;;9.87;100.00;101962.31;4953755;28;20136;-77
2022/10/12 08:11:45;;;;;;;8.07;4.22;;;;;;;9.93;100.00;101963.22;4973846;28;20052;-78
2022/10/12 08:14:13;;;;;;;6.60;3.70;;;;;;;10.00;100.00;101957.03;4957561;28;20039;-76
2022/10/12 08:16:41;;;;;;;6.95;3.47;;;;;;;10.09;100.00;101960.63;4949188;28;20046;-78
2022/10/12 08:19:08;;;;;;;6.68;3.33;;;;;;;10.17;100.00;101957.97;4953557;28;20039;-78
2022/10/12 08:21:34;;;;;;;5.80;3.28;;;;;;;10.25;100.00;101958.88;4955648;28;20054;-77
2022/10/12 08:24:01;;;;;;;10.68;4.43;;;;;;;10.41;100.00;101952.75;4972388;28;20039;-76
2022/10/12 08:26:29;;;;;;;9.23;3.10;;;;;;;10.60;100.00;101950.16;4968349;28;20065;-77
2022/10/12 08:28:55;;;;;;;9.63;3.47;;;;;;;10.66;100.00;101952.75;4967837;28;20034;-77
2022/10/12 08:31:22;;;;;;;8.98;4.18;;;;;;;10.82;100.00;101953.63;4944698;28;20050;-77
2022/10/12 08:33:49;;;;;;;9.85;3.50;;;;;;;11.16;100.00;101954.47;4965848;28;20440;-77
2022/10/12 08:36:15;;;;;;;11.20;3.78;;;;;;;11.36;100.00;101962.38;4972046;28;20039;-78
2022/10/12 08:38:42;;;;;;;7.07;3.38;;;;;;;11.52;100.00;101945.56;4972389;28;20137;-76
2022/10/12 08:41:23;;;;;;;14.13;3.47;;;;;;;11.44;100.00;101948.22;4972244;28;20042;-76
2022/10/12 08:44:02;;;;;;;8.15;3.15;;;;;;;11.67;100.00;101947.25;4955844;28;20175;-76
2022/10/12 08:46:29;;;;;;;8.43;3.30;;;;;;;11.72;100.00;101951.63;4953368;28;20043;-78
2022/10/12 08:49:00;;;;;;;7.10;2.95;;;;;;;11.76;100.00;101936.59;4954308;28;20452;-78
2022/10/12 08:51:30;;;;;;;6.32;2.72;;;;;;;11.79;100.00;101937.50;4955192;28;20089;-76
2022/10/12 08:54:01;;;;;;;8.45;2.88;;;;;;;11.82;100.00;101944.56;4956200;28;20068;-76
2022/10/12 08:56:28;;;;;;;8.02;3.10;;;;;;;11.84;100.00;101933.06;4954400;28;20097;-76
2022/10/12 08:58:55;;;;;;;4.93;2.72;;;;;;;11.92;99.94;101938.31;4938640;28;20058;-76
2022/10/12 09:01:25;;;;;;;7.32;2.90;;;;;;;12.23;100.00;101946.97;4952440;28;20090;-77
2022/10/12 09:04:04;;;;;;;8.02;2.70;;;;;;;12.59;96.56;101937.84;4962350;28;20070;-77
2022/10/12 09:06:41;;;;;;;6.80;2.65;;;;;;;12.59;95.12;101934.31;4939861;28;20451;-76
2022/10/12 09:09:30;;;;;;;7.68;2.60;;;;;;;12.63;93.40;101938.72;4933518;29;20455;-77
2022/10/12 09:12:20;;;;;;;6.78;2.83;;;;;;;12.66;93.23;101933.38;4945263;28;20420;-77
2022/10/12 09:14:50;;;;;;;5.88;2.33;;;;;;;12.88;92.76;101939.38;4952719;28;20047;-77
2022/10/12 09:17:21;;;;;;;4.80;2.72;;;;;;;13.00;92.92;101933.94;4950161;28;20058;-77
2022/10/12 09:19:53;;;;;;;8.70;2.50;;;;;;;13.36;90.66;101927.38;4921667;29;20504;-77
2022/10/12 09:22:20;;;;;;;6.03;2.70;;;;;;;13.67;84.07;101929.66;4971519;28;20535;-77
2022/10/12 09:24:47;;;;;;;8.07;2.65;;;;;;;13.51;82.46;101931.63;4971649;28;20522;-76
2022/10/12 09:27:17;;;;;;;9.23;3.10;;;;;;;13.83;81.93;101923.25;4950799;28;20050;-77
2022/10/12 09:29:45;;;;;;;7.35;2.47;;;;;;;14.03;80.80;101926.47;4954718;28;20050;-76
2022/10/12 09:32:32;;;;;;;10.30;3.05;;;;;;;14.04;79.58;101933.59;4954996;28;20090;-76
2022/10/12 09:34:59;;;;;;;9.77;3.25;;;;;;;14.31;77.37;101934.06;4984981;28;20054;-76
2022/10/12 09:37:31;;;;;;;7.43;2.40;;;;;;;14.63;79.25;101934.47;4962260;28;20038;-76
2022/10/12 09:39:58;;;;;;;8.38;2.42;;;;;;;14.86;79.48;101928.72;4961634;28;20398;-78
2022/10/12 09:42:24;;;;;;;5.93;2.30;;;;;;;15.08;72.64;101918.56;4973157;28;20043;-76
2022/10/12 09:44:58;;;;;;;7.90;2.40;;;;;;;15.22;70.17;101912.97;4968202;28;20039;-78
2022/10/12 09:47:30;;;;;;;8.23;2.87;;;;;;;15.25;68.87;101915.56;4973670;28;20039;-76
2022/10/12 09:49:59;;;;;;;5.82;2.17;;;;;;;15.45;72.75;101913.38;4941702;28;20070;-76
2022/10/12 09:52:44;;;;;;;6.68;2.28;;;;;;;15.56;68.84;101909.63;4948875;28;20058;-77
2022/10/12 09:55:14;;;;;;;7.65;2.88;;;;;;;15.68;70.37;101914.72;4963657;28;20038;-77
2022/10/12 09:57:43;;;;;;;7.80;2.25;;;;;;;15.83;66.85;101910.84;4945581;28;20067;-76
2022/10/12 10:00:27;;;;;;;6.28;2.22;;;;;;;15.83;62.91;101906.38;4955601;28;20034;-77
2022/10/12 10:02:54;;;;;;;8.83;2.90;;;;;;;15.89;65.79;101916.00;4958900;28;20047;-76
2022/10/12 10:05:33;;;;;;;4.68;1.85;;;;;;;15.93;65.42;101909.72;4965058;28;20082;-78
2022/10/12 10:08:18;;;;;;;8.27;2.67;;;;;;;15.90;63.28;101910.69;4966853;28;20039;-77
2022/10/12 10:10:55;;;;;;;6.50;2.28;;;;;;;15.89;62.67;101908.94;4968352;28;20038;-78
2022/10/12 10:13:29;;;;;;;10.35;2.50;;;;;;;15.65;58.42;101906.81;4953222;28;20083;-77
2022/10/12 10:16:04;;;;;;;7.00;1.90;;;;;;;15.93;61.05;101907.06;4970948;28;20043;-76
2022/10/12 10:18:35;;;;;;;4.60;1.92;;;;;;;16.07;61.29;101898.75;4953127;28;20704;-77
2022/10/12 10:21:04;;;;;;;5.70;1.90;;;;;;;16.20;60.19;101909.06;4952069;28;20129;-77
2022/10/12 10:23:41;;;;;;;5.70;1.80;;;;;;;16.18;56.81;101902.91;4972857;28;20042;-77
2022/10/12 10:26:11;;;;;;;6.78;2.22;;;;;;;16.24;58.75;101902.75;4972382;28;20042;-77
2022/10/12 10:28:43;;;;;;;4.03;1.75;;;;;;;16.18;60.07;101902.03;4955368;28;20043;-78
2022/10/12 10:31:13;;;;;;;5.80;1.83;;;;;;;16.40;57.34;101897.06;4938944;28;20046;-77
2022/10/12 10:33:41;;;;;;;6.95;1.85;;;;;;;16.46;54.92;101897.75;4946587;28;20055;-77
2022/10/12 10:36:19;;;;;;;9.68;2.05;;;;;;;16.35;54.90;101893.63;4964029;28;20046;-78
2022/10/12 10:38:55;;;;;;;6.07;2.13;;;;;;;16.43;56.88;101904.97;4971231;28;20039;-77
2022/10/12 10:41:28;;;;;;;5.60;2.15;;;;;;;16.59;54.26;101901.00;4935071;28;20497;-75
2022/10/12 10:43:55;;;;;;;5.88;1.75;;;;;;;16.41;54.46;101905.03;4950684;28;20043;-77
2022/10/12 10:46:29;;;;;;;6.40;1.90;;;;;;;16.14;55.60;101903.00;4976038;28;20054;-78
2022/10/12 10:48:57;;;;;;;;;;;;;;;16.10;56.35;101899.53;4955945;28;20042;-77
2022/10/12 10:51:51;;;;;;;8.32;1.73;;;;;;;16.15;55.43;101889.66;4952443;28;19922;-77
2022/10/12 10:54:20;;;;;;;4.18;1.42;;;;;;;15.86;56.83;101894.78;4936393;29;20062;-77
2022/10/12 10:56:50;;;;;;;7.65;2.25;;;;;;;15.73;58.59;101891.53;4953098;28;20122;-78
2022/10/12 10:59:20;;;;;;;4.38;1.70;;;;;;;15.64;58.82;101883.75;4935913;29;20051;-77
2022/10/12 11:01:54;;;;;;;3.65;1.60;;;;;;;15.86;57.80;101886.78;4937337;29;20039;-77
2022/10/12 11:04:31;;;;;;;6.70;2.25;;;;;;;16.22;55.76;101883.22;4939932;28;20089;-76
2022/10/12 11:07:04;;;;;;;4.97;1.85;;;;;;;16.43;57.87;101870.31;4962865;28;20103;-77
2022/10/12 11:09:41;;;;;;;5.95;2.33;;;;;;;16.81;55.04;101877.31;4952192;29;20039;-76
2022/10/12 11:12:14;;;;;;;6.63;2.30;;;;;;;16.95;54.91;101869.81;4951674;29;20043;-77
2022/10/12 11:14:54;;;;;;;5.40;1.87;;;;;;;17.00;53.00;101862.56;4963451;28;20043;-77
2022/10/12 11:17:29;;;;;;;7.25;2.15;;;;;;;16.78;54.39;101869.41;4966454;28;20090;-76
2022/10/12 11:20:27;;;;;;;5.57;1.60;;;;;;;16.56;53.58;101861.03;4966026;28;20046;-76
2022/10/12 11:22:57;;;;;;;4.53;1.77;;;;;;;16.65;55.86;101867.94;4970540;28;20512;-77
2022/10/12 11:25:54;;;;;;;4.53;1.63;;;;;;;16.45;56.84;101863.13;4951346;28;20416;-77
2022/10/12 11:28:23;;;;;;;6.63;1.52;;;;;;;16.41;55.43;101858.81;4921115;28;20673;-75
2022/10/12 11:30:52;;;;;;;7.43;2.58;;;;;;;16.39;58.01;101855.28;4955049;28;20452;-76
2022/10/12 11:33:24;;;;;;;3.65;1.42;;;;;;;16.67;53.49;101858.13;4952600;28;20038;-77
2022/10/12 11:35:52;;;;;;;7.85;2.08;;;;;;;16.84;53.64;101840.75;4979766;28;20401;-77
2022/10/12 11:38:23;;;;;;;5.50;2.00;;;;;;;16.87;52.22;101846.00;4961867;28;20047;-77